Startpagina
METAR-TAF:

METAR-TAF

Vliegvelden :

Luchthaven M'Vengue El Hadj Omar Bongo Ondimba

Franceville, Gabon

breedte: 01-39S, lengte: 013-26E, hoogte: 441 m

Actueel weer

Dit bericht is 29 minuten geleden gemaakt, om 12:00 UTC
Wind 4 kt uit het oosten
Temperatuur 28°C
Vochtigheid 70%
Druk 1014 hPa
Zicht 10 km of meer
Gebroken wolken op 1200 ft
Verspreide wolken op 2000 ft

METAR: FOON 211200Z 08004KT 9999 BKN012 SCT020 28/22 Q1014

Tijdstip: 13:29 (12:29 UTC)


TAF: ontbreekt

Waarnemingen en weersverwachtingen van meer dan 4000 vliegvelden (METAR en TAF).

De beschikbare stations zijn de gele en rode punten op de kaart.

Ga met uw muis naar het station om de naam te zien.

Klik dan om waarnemingen en weersverwachtingen te zien.

kaart wijzigen: klik op de groene knoppen met een zwart kruis om in te zoomen, op de groene knop met een streepje om uit te zoomen of op de groene pijlen voor aangrenzende kaarten.


METAR-TAF: